Wilda, Louisiana
Current Conditions -  °F | °C
As of 4:53 PM on Tuesday 27 Jan 2015 (Local Time) from KAEX Reporting Station
Clear Clear  
Wind Chill: 71°   Ceiling: Unl
Heat Index: 71°   Visibility: 10mi
Dew Point: 44°   Wind: 5mph
Humidity: 38%   Direction: 180°S
Pressure: 30.1"   Gusts: NA
Location:  31.3168°N, 92.7338°W
Report Text: KAEX 272253Z AUTO 18004KT 10SM CLR 22/07 A3010 RMK AO2 SLP196 T02170067
Loading
Personal Weather Stations






























Interactive Weather Map New forecast layout! Learn more

10-Day Weather Forecast

Advertisements
Track Severe Weather on mobile